Flight Track Log - Related Links

Times and Time Zones

All times are in EST time to prevent confusion due to time zone crossing. See the N111KC flight status page for this flight to view local times or setup timezone preferences in your user account.

Time Position Orientation Groundspeed Altitude Reporting Facility
EST Latitude Longitude Course Direction KTS MPH feet Rate Location/Type
Mon 10:14:00 AM 30.2308 -85.4638 108° East  Level Estimated
Mon 10:15:00 AM 30.2154 -85.4061 107° East  Level FlightAware Approximate
Mon 10:16:00 AM 30.1999 -85.3483 107° East  Level FlightAware Approximate
Mon 10:17:00 AM 30.2270 -85.2858 63° Northeast  Level FlightAware Approximate
Mon 10:18:00 AM 30.2540 -85.2233 63° Northeast  Level FlightAware Approximate
Mon 10:19:00 AM 30.2277 -85.1603 94° East  Level Estimated
Mon 10:20:00 AM 30.2407 -85.0920 78° East  Level FlightAware Approximate
Mon 10:21:00 AM 30.2537 -85.0237 78° East  Level FlightAware Approximate
Mon 10:22:00 AM 30.2666 -84.9554 78° East  Level FlightAware Approximate
Mon 10:22:33 AM 30.2386 -85.1214 111° Southeast 227 261 17,900  Level Jacksonville Center
Mon 10:23:00 AM 30.2385 -84.8935 98° East  Level Estimated
Mon 10:23:33 AM 30.2419 -85.0517 87° East 227 261 18,600  Level Jacksonville Center
Mon 10:24:00 AM 30.2506 -84.8250 78° East  Level FlightAware Approximate
Mon 10:24:33 AM 30.2453 -84.9797 87° East 227 261 19,300  Level Jacksonville Center
Mon 10:25:00 AM 30.2218 -84.7635 90° East  Level Estimated
Mon 10:25:33 AM 30.2486 -84.9075 87° East 227 261 20,100  Level Jacksonville Center
Mon 10:26:00 AM 30.1930 -84.7020 111° Southeast  Level Estimated
Mon 10:26:33 AM 30.2517 -84.8356 87° East 227 261 20,700  Level Jacksonville Center
Mon 10:27:33 AM 30.2592 -84.7564 84° East 227 261 21,000 150 Climbing Jacksonville Center
Mon 10:28:33 AM 30.2708 -84.6747 81° East 246 283 21,000 -50 Level Jacksonville Center
Mon 10:29:33 AM 30.2678 -84.5931 92° East 256 295 20,900  Descending Jacksonville Center
Mon 10:30:33 AM 30.2350 -84.5300 121° Southeast 234 269 21,000  Climbing Jacksonville Center
Mon 10:31:33 AM 30.1983 -84.4667 124° Southeast 234 269 20,900 -50 Descending Jacksonville Center
Mon 10:32:33 AM 30.1658 -84.3989 119° Southeast 234 269 20,900  Level Jacksonville Center
Mon 10:33:33 AM 30.1311 -84.3358 122° Southeast 234 269 20,900  Level Jacksonville Center
Mon 10:34:33 AM 30.0961 -84.2731 123° Southeast 234 269 20,900  Level Jacksonville Center
Mon 10:35:33 AM 30.0678 -84.2031 115° Southeast 234 269 20,900 50 Level Jacksonville Center
Mon 10:36:33 AM 30.0392 -84.1356 116° Southeast 234 269 21,000 50 Climbing Jacksonville Center
Mon 10:37:33 AM 30.0106 -84.0681 116° Southeast 234 269 21,000  Level Jacksonville Center
Mon 10:38:33 AM 29.9819 -83.9981 115° Southeast 234 269 21,000  Level Jacksonville Center
Mon 10:39:33 AM 29.9533 -83.9281 115° Southeast 234 269 21,000  Level Jacksonville Center
Mon 10:40:33 AM 29.9206 -83.8608 119° Southeast 234 269 21,000 -50 Level Jacksonville Center
Mon 10:41:33 AM 29.8897 -83.7933 118° Southeast 234 269 20,900  Descending Jacksonville Center
Mon 10:42:33 AM 29.8567 -83.7283 120° Southeast 234 269 21,000 50 Climbing Jacksonville Center
Mon 10:43:33 AM 29.8236 -83.6636 120° Southeast 234 269 21,000  Level Jacksonville Center
Mon 10:44:33 AM 29.7906 -83.6008 121° Southeast 234 269 21,000  Level Jacksonville Center
Mon 10:45:33 AM 29.7575 -83.5314 119° Southeast 234 269 21,000 -100 Level Jacksonville Center
Mon 10:46:33 AM 29.7286 -83.4642 116° Southeast 234 269 20,800 -400 Descending Jacksonville Center
Mon 10:47:33 AM 29.6978 -83.3900 116° Southeast 240 276 20,200 -900 Descending Jacksonville Center
Mon 10:48:33 AM 29.6644 -83.3133 117° Southeast 251 289 19,000 -1,150 Descending Jacksonville Center
Mon 10:49:33 AM 29.6356 -83.2367 113° Southeast 256 295 17,900 -900 Descending Jacksonville Center
Mon 10:50:33 AM 29.6022 -83.1553 115° Southeast 268 308 17,200 -500 Descending Jacksonville Center
Mon 10:51:33 AM 29.5733 -83.0861 116° Southeast 261 300 16,900 -100 Descending Jacksonville Center
Mon 10:52:33 AM 29.5400 -83.0167 119° Southeast 251 289 17,000 50 Climbing Jacksonville Center
Mon 10:53:33 AM 29.5086 -82.9475 118° Southeast 242 278 17,000 -50 Level Jacksonville Center
Mon 10:54:33 AM 29.4814 -82.8711 112° Southeast 242 278 16,900 -250 Descending Jacksonville Center
Mon 10:55:33 AM 29.4503 -82.7994 116° Southeast 242 278 16,500 -874 Descending Jacksonville Center
Mon 10:56:16 AM 29.4231 -82.7519 123° Southeast 258 297 15,400 -1,400 Descending Jacksonville Center
Mon 10:56:33 AM 29.4106 -82.7281 121° Southeast 242 278 15,100 -1,169 Descending Jacksonville Center
Mon 10:57:33 AM 29.3728 -82.6519 120° Southeast 261 300 13,900 -1,282 Descending Jacksonville Center
Mon 10:58:30 AM 29.3414 -82.5806 117° Southeast 275 316 12,600 -1,400 Descending Jacksonville Center
Mon 10:58:33 AM 29.3392 -82.5711 105° East 266 306 12,500 -1,429 Descending Jacksonville Center
Mon 10:59:33 AM 29.3078 -82.4972 116° Southeast 271 312 11,100 -1,406 Descending Jacksonville Center
Mon 10:59:37 AM 29.3036 -82.4950 155° Southeast 264 304 11,000 -1,200 Descending Jacksonville Center
Mon 11:00:33 AM 29.2678 -82.4283 122° Southeast 259 298 9,900 -1,161 Descending Jacksonville Center
Mon 11:00:39 AM 29.2636 -82.4236 135° Southeast 256 295 9,800 -896 Descending Jacksonville Center
Mon 11:01:40 AM 29.2278 -82.3572 122° Southeast 248 285 8,900 -789 Descending Jacksonville Center
Mon 11:02:33 AM 29.2044 -82.2883 111° Southeast 248 285 8,300 -689 Descending Jacksonville Center
Mon 11:02:41 AM 29.2003 -82.2789 117° Southeast 249 287 8,200 -700 Descending Jacksonville Center
Mon 11:03:33 AM 29.1769 -82.2194 114° Southeast 243 280 7,600 -590 Descending Jacksonville Center
Mon 11:03:42 AM 29.1686 -82.2125 144° Southeast 237 273 7,600 -500 Level Jacksonville Center
Mon 11:04:33 AM 29.1331 -82.1653 131° Southeast 237 273 7,100 -590 Descending Jacksonville Center
Mon 11:04:43 AM 29.1267 -82.1581 135° Southeast 233 268 7,000 -100 Descending Jacksonville Center
Mon 11:05:33 AM 29.0950 -82.1061 125° Southeast 232 267 7,000  Level Jacksonville Center
Mon 11:05:44 AM 29.0867 -82.0989 143° Southeast 220 253 7,000  Level Jacksonville Center
Mon 11:08:05 AM 29.0000 -81.9667 127° Southeast 214 246 7,000  Level Orlando TRACON
Mon 11:09:05 AM 28.9667 -81.9167 127° Southeast 213 245 7,000  Level Orlando TRACON
Mon 11:10:05 AM 28.9167 -81.8667 139° Southeast 215 247 7,000  Level Orlando TRACON
Mon 11:11:05 AM 28.8833 -81.8167 127° Southeast 213 245 7,000  Level Orlando TRACON
Mon 11:12:06 AM 28.8500 -81.7667 127° Southeast 215 247 7,000 -446 Level Orlando TRACON
Mon 11:13:06 AM 28.8000 -81.7333 150° Southeast 226 260 6,100 -850 Descending Orlando TRACON
Mon 11:14:06 AM 28.7333 -81.7000 156° South 231 266 5,300 -600 Descending Orlando TRACON
Mon 11:15:06 AM 28.6833 -81.6667 150° Southeast 220 253 4,900 -200 Descending Orlando TRACON
Mon 11:16:06 AM 28.6333 -81.6333 150° Southeast 205 236 4,900 -550 Level Orlando TRACON
Mon 11:17:06 AM 28.5833 -81.6000 150° Southeast 237 273 3,800 -1,140 Descending Orlando TRACON
Mon 11:18:07 AM 28.5500 -81.5333 120° Southeast 215 247 2,600 -942 Descending Orlando TRACON
Mon 11:19:07 AM 28.5167 -81.4833 127° Southeast 196 226 1,900 -500 Descending Orlando TRACON
Mon 11:20:07 AM 28.5167 -81.4333 90° East 167 192 1,600 -450 Descending Orlando TRACON
Mon 11:21:07 AM 28.5167 -81.3833 90° East 118 136 1,000 -619 Descending Orlando TRACON
Mon 11:22:13 AM 28.5333 -81.3500 60° Northeast 110 127 300 -636 Descending Orlando TRACON
Mon 11:24:00 AM 28.5455 -81.3329 83° East  Level Estimated
Mon 11:31:00 AM 28.5455 -81.3329 83° East  Level Estimated
Mon 11:32:00 AM 28.5455 -81.3329 83° East  Level Estimated
Mon 11:33:00 AM 28.5455 -81.3329 83° East  Level Estimated

Login

Don't have an account? Register now (free) for customized features, flight alerts, and more!